createdAt,value
2023-01-13T18:31:30.834Z,15.80
2023-01-13T18:32:33.030Z,13.80
2023-01-13T18:33:31.805Z,16.10
2023-01-13T18:34:39.330Z,14.80
2023-01-13T18:35:31.757Z,15.50
2023-01-13T18:36:31.801Z,13.70
2023-01-13T18:37:31.744Z,15.30
2023-01-13T18:38:31.751Z,14.70
2023-01-13T18:39:31.720Z,15.00
2023-01-13T18:40:31.741Z,15.30
2023-01-13T18:41:31.723Z,16.40
2023-01-13T18:42:31.696Z,17.90
2023-01-13T18:43:31.702Z,17.00
2023-01-13T18:44:31.721Z,18.40
2023-01-13T18:45:31.672Z,18.80
2023-01-13T18:46:39.260Z,13.40
2023-01-13T18:47:39.215Z,16.40
2023-01-13T18:48:31.643Z,15.90
2023-01-13T18:49:31.655Z,19.60
2023-01-13T18:50:31.646Z,17.40
2023-01-13T18:51:31.605Z,14.70
2023-01-13T18:52:31.592Z,15.50
2023-01-13T18:53:31.570Z,19.30
2023-01-13T18:54:31.570Z,17.60
2023-01-13T18:55:31.571Z,17.00
2023-01-13T18:56:31.578Z,18.80
2023-01-13T18:57:31.558Z,16.20
2023-01-13T18:58:31.554Z,17.20
2023-01-13T18:59:31.520Z,16.90
2023-01-13T19:00:31.517Z,17.60
2023-01-13T19:01:31.642Z,15.50
2023-01-13T19:02:31.591Z,18.40
2023-01-13T19:03:31.510Z,16.30
2023-01-13T19:04:31.489Z,18.00
2023-01-13T19:05:31.500Z,19.00
2023-01-13T19:06:32.260Z,19.70
2023-01-13T19:07:31.473Z,16.30
2023-01-13T19:08:31.413Z,17.20
2023-01-13T19:09:31.445Z,20.30
2023-01-13T19:10:31.413Z,15.30
2023-01-13T19:11:31.393Z,18.30
2023-01-13T19:12:31.412Z,19.30
2023-01-13T19:13:31.365Z,17.40
2023-01-13T19:14:31.376Z,20.00
2023-01-13T19:15:31.428Z,16.50
2023-01-13T19:16:31.338Z,18.70
2023-01-13T19:17:31.394Z,20.90
2023-01-13T19:18:31.381Z,17.30
2023-01-13T19:19:31.308Z,18.90
2023-01-13T19:20:31.316Z,20.30
2023-01-13T19:21:31.314Z,16.40
2023-01-13T19:22:31.372Z,20.90
2023-01-13T19:23:31.281Z,17.60
2023-01-13T19:24:31.246Z,16.90
2023-01-13T19:25:31.276Z,20.00
2023-01-13T19:26:31.243Z,17.80
2023-01-13T19:27:31.237Z,16.60
2023-01-13T19:28:31.245Z,18.40
2023-01-13T19:29:32.642Z,21.30
2023-01-13T19:30:31.199Z,17.20
2023-01-13T19:31:31.247Z,21.60
2023-01-13T19:32:31.167Z,19.70
2023-01-13T19:33:31.193Z,20.10
2023-01-13T19:34:31.219Z,19.30
2023-01-13T19:35:31.186Z,17.90
2023-01-13T19:36:31.123Z,22.80
2023-01-13T19:37:31.160Z,17.10
2023-01-13T19:38:31.131Z,20.30
2023-01-13T19:39:31.130Z,20.30
2023-01-13T19:40:31.147Z,15.90
2023-01-13T19:41:31.088Z,23.60
2023-01-13T19:42:31.111Z,19.50
2023-01-13T19:43:31.114Z,23.00
2023-01-13T19:44:31.460Z,18.70
2023-01-13T19:45:31.082Z,21.80
2023-01-13T19:46:31.656Z,23.10
2023-01-13T19:47:31.055Z,21.80
2023-01-13T19:48:31.049Z,16.20
2023-01-13T19:49:34.790Z,17.40
2023-01-13T19:50:31.113Z,17.20
2023-01-13T19:51:30.983Z,20.40
2023-01-13T19:52:31.003Z,19.60
2023-01-13T19:53:31.087Z,20.40
2023-01-13T19:55:06.047Z,21.90
2023-01-13T19:55:31.127Z,22.50
2023-01-13T19:56:35.499Z,18.20
2023-01-13T19:57:30.994Z,21.70
2023-01-13T19:58:31.065Z,22.30
2023-01-13T19:59:30.928Z,19.50
2023-01-13T20:00:30.937Z,18.40
2023-01-13T20:01:30.957Z,24.70
2023-01-13T20:02:30.938Z,20.80
2023-01-13T20:03:31.020Z,20.40
2023-01-13T20:04:30.858Z,22.80
2023-01-13T20:05:30.869Z,17.30
2023-01-13T20:06:30.811Z,20.10
2023-01-13T20:07:30.821Z,19.20
2023-01-13T20:08:30.815Z,21.10
2023-01-13T20:09:30.812Z,24.30
2023-01-13T20:10:30.836Z,22.50
2023-01-13T20:11:30.817Z,20.10
2023-01-13T20:12:30.763Z,16.30
2023-01-13T20:13:31.555Z,23.10
2023-01-13T20:14:30.762Z,20.10
2023-01-13T20:15:30.767Z,20.10
2023-01-13T20:16:30.808Z,22.40
2023-01-13T20:17:30.847Z,20.70
2023-01-13T20:18:30.710Z,20.90
2023-01-13T20:19:30.721Z,19.10
2023-01-13T20:20:30.682Z,18.40
2023-01-13T20:21:30.692Z,23.50
2023-01-13T20:22:31.008Z,21.60
2023-01-13T20:23:30.651Z,21.30
2023-01-13T20:24:30.687Z,23.90
2023-01-13T20:25:30.638Z,17.20
2023-01-13T20:26:30.586Z,20.30
2023-01-13T20:27:30.597Z,16.90
2023-01-13T20:28:30.609Z,20.30
2023-01-13T20:29:30.570Z,23.50
2023-01-13T20:30:30.557Z,21.00
2023-01-13T20:31:30.596Z,18.10
2023-01-13T20:32:30.567Z,24.90
2023-01-13T20:33:30.616Z,22.50
2023-01-13T20:34:32.638Z,19.30
2023-01-13T20:35:30.849Z,22.90
2023-01-13T20:36:31.435Z,21.30
2023-01-13T20:37:30.537Z,22.10
2023-01-13T20:38:30.484Z,20.80
2023-01-13T20:39:30.447Z,16.40
2023-01-13T20:40:30.459Z,19.30
2023-01-13T20:41:30.430Z,25.10
2023-01-13T20:42:30.489Z,20.70
2023-01-13T20:43:30.430Z,24.80
2023-01-13T20:44:30.409Z,21.70
2023-01-13T20:45:30.408Z,19.30
2023-01-13T20:46:30.408Z,25.30
2023-01-13T20:47:30.410Z,20.80
2023-01-13T20:48:30.369Z,24.50
2023-01-13T20:49:30.400Z,24.00
2023-01-13T20:50:30.342Z,19.60
2023-01-13T20:51:30.364Z,23.30
2023-01-13T20:52:30.409Z,23.70
2023-01-13T20:53:30.379Z,22.20
2023-01-13T20:54:30.717Z,28.60
2023-01-13T20:55:30.313Z,22.90
2023-01-13T20:56:30.273Z,22.70
2023-01-13T20:57:30.272Z,21.00
2023-01-13T20:58:30.291Z,22.40
2023-01-13T20:59:30.275Z,23.70
2023-01-13T21:00:30.312Z,25.10
2023-01-13T21:01:30.363Z,20.20
2023-01-13T21:02:30.252Z,21.90
2023-01-13T21:03:30.255Z,22.40
2023-01-13T21:04:30.192Z,26.40
2023-01-13T21:05:30.198Z,24.00
2023-01-13T21:06:30.173Z,24.70
2023-01-13T21:07:30.240Z,27.70
2023-01-13T21:08:30.180Z,21.80
2023-01-13T21:09:30.149Z,27.90
2023-01-13T21:10:30.206Z,23.50
2023-01-13T21:11:30.233Z,24.10
2023-01-13T21:12:30.141Z,26.10
2023-01-13T21:13:31.066Z,28.00
2023-01-13T21:14:30.154Z,26.10
2023-01-13T21:15:45.318Z,25.50
2023-01-13T21:16:50.212Z,24.70
2023-01-13T21:17:30.071Z,23.90
2023-01-13T21:18:30.156Z,22.10
2023-01-13T21:19:30.797Z,26.20
2023-01-13T21:20:32.771Z,29.10
2023-01-13T21:21:30.571Z,18.50
2023-01-13T21:22:35.572Z,21.30
2023-01-13T21:23:30.055Z,27.50
2023-01-13T21:24:32.331Z,23.60
2023-01-13T21:25:30.582Z,27.70
2023-01-13T21:26:31.968Z,23.70
2023-01-13T21:27:30.577Z,28.60
2023-01-13T21:28:31.777Z,26.80
2023-01-13T21:29:30.078Z,25.50
2023-01-13T21:30:29.954Z,26.30
2023-01-13T21:31:30.032Z,24.60
2023-01-13T21:32:29.979Z,27.80
2023-01-13T21:33:30.575Z,22.70
2023-01-13T21:34:32.594Z,28.50
2023-01-13T21:35:31.070Z,28.00
2023-01-13T21:36:32.548Z,28.30
2023-01-13T21:37:30.579Z,31.80
2023-01-13T21:38:30.412Z,24.10
2023-01-13T21:39:29.875Z,26.90
2023-01-13T21:40:31.648Z,25.20
2023-01-13T21:41:31.690Z,25.00
2023-01-13T21:42:29.902Z,26.10
2023-01-13T21:43:31.094Z,32.10
2023-01-13T21:44:31.081Z,26.80
2023-01-13T21:45:31.514Z,25.50
2023-01-13T21:46:30.075Z,26.00
2023-01-13T21:47:29.892Z,29.10
2023-01-13T21:48:29.815Z,29.90
2023-01-13T21:49:29.804Z,31.90
2023-01-13T21:50:29.752Z,26.90
2023-01-13T21:51:29.764Z,25.30
2023-01-13T21:52:29.701Z,32.40
2023-01-13T21:53:29.700Z,32.60
2023-01-13T21:54:29.687Z,25.60
2023-01-13T21:55:29.688Z,29.70
2023-01-13T21:56:29.645Z,22.20
2023-01-13T21:57:29.629Z,22.50
2023-01-13T21:58:29.679Z,29.90
2023-01-13T21:59:29.623Z,25.40
2023-01-13T22:00:29.613Z,28.30
2023-01-13T22:01:29.707Z,29.20
2023-01-13T22:02:29.676Z,23.10
2023-01-13T22:03:29.581Z,26.50
2023-01-13T22:04:29.591Z,26.90
2023-01-13T22:05:29.592Z,27.90
2023-01-13T22:06:29.589Z,28.90
2023-01-13T22:07:29.558Z,26.90
2023-01-13T22:08:29.534Z,25.90
2023-01-13T22:09:29.538Z,26.20
2023-01-13T22:10:29.541Z,27.80
2023-01-13T22:11:29.488Z,30.80
2023-01-13T22:12:29.517Z,28.80
2023-01-13T22:13:29.450Z,24.80
2023-01-13T22:14:29.471Z,27.50
2023-01-13T22:15:29.487Z,26.70
2023-01-13T22:16:29.495Z,25.20
2023-01-13T22:17:29.434Z,27.90
2023-01-13T22:18:29.417Z,29.40
2023-01-13T22:19:29.409Z,26.30
2023-01-13T22:20:29.399Z,22.70
2023-01-13T22:21:29.393Z,25.30
2023-01-13T22:22:29.380Z,22.50
2023-01-13T22:23:29.350Z,25.50
2023-01-13T22:24:29.405Z,25.80
2023-01-13T22:25:29.411Z,25.30
2023-01-13T22:26:30.847Z,26.10
2023-01-13T22:27:29.348Z,24.90
2023-01-13T22:28:29.405Z,28.70
2023-01-13T22:29:31.101Z,32.30
2023-01-13T22:30:29.332Z,29.80
2023-01-13T22:31:29.308Z,30.40
2023-01-13T22:32:29.273Z,21.70
2023-01-13T22:33:29.282Z,27.20
2023-01-13T22:34:29.261Z,23.70
2023-01-13T22:35:30.089Z,22.10
2023-01-13T22:36:29.229Z,22.90
2023-01-13T22:37:29.243Z,31.10
2023-01-13T22:38:29.215Z,25.40
2023-01-13T22:39:29.199Z,24.60
2023-01-13T22:40:29.236Z,27.00
2023-01-13T22:41:29.220Z,31.60
2023-01-13T22:42:31.002Z,27.90
2023-01-13T22:43:29.181Z,27.90
2023-01-13T22:44:29.239Z,24.70
2023-01-13T22:45:29.253Z,27.20
2023-01-13T22:46:29.250Z,28.20
2023-01-13T22:47:29.264Z,24.30
2023-01-13T22:48:36.160Z,23.50
2023-01-13T22:52:06.744Z,33.30
2023-01-13T22:53:07.714Z,28.50
2023-01-13T22:54:09.682Z,26.10
2023-01-13T22:55:07.744Z,26.80
2023-01-13T22:56:07.735Z,25.40
2023-01-13T22:57:09.499Z,26.60
2023-01-13T22:58:07.710Z,27.00
2023-01-13T22:59:07.893Z,26.90
2023-01-13T23:00:07.667Z,28.70
2023-01-13T23:01:07.680Z,28.50
2023-01-13T23:02:14.417Z,29.20
2023-01-13T23:03:07.644Z,27.00
2023-01-13T23:04:07.717Z,30.50
2023-01-13T23:05:07.636Z,31.80
2023-01-13T23:06:07.579Z,26.70
2023-01-13T23:07:07.576Z,29.00
2023-01-13T23:08:07.595Z,24.20
2023-01-13T23:09:07.601Z,28.30
2023-01-13T23:10:07.579Z,25.80
2023-01-13T23:11:07.588Z,24.70
2023-01-13T23:12:07.538Z,28.20
2023-01-13T23:13:07.511Z,28.00
2023-01-13T23:14:07.555Z,28.70
2023-01-13T23:15:07.519Z,31.30
2023-01-13T23:16:07.497Z,32.50
2023-01-13T23:17:07.504Z,26.50
2023-01-13T23:18:07.453Z,26.30
2023-01-13T23:19:07.451Z,25.70
2023-01-13T23:20:07.459Z,27.60
2023-01-13T23:21:07.466Z,33.00
2023-01-13T23:22:07.461Z,31.10
2023-01-13T23:23:07.408Z,27.20
2023-01-13T23:24:07.384Z,27.80
2023-01-13T23:25:07.368Z,29.30
2023-01-13T23:26:07.761Z,31.50
2023-01-13T23:27:07.355Z,25.90
2023-01-13T23:28:07.376Z,26.40
2023-01-13T23:29:07.340Z,26.70
2023-01-13T23:30:07.316Z,30.50
2023-01-13T23:31:07.357Z,21.90
2023-01-13T23:32:07.353Z,23.10
2023-01-13T23:33:07.315Z,23.70
2023-01-13T23:34:07.280Z,24.60
2023-01-13T23:35:07.282Z,23.90
2023-01-13T23:36:07.296Z,28.20
2023-01-13T23:37:07.278Z,29.90
2023-01-13T23:38:07.290Z,26.80
2023-01-13T23:39:07.256Z,25.30
2023-01-13T23:40:07.225Z,30.30
2023-01-13T23:41:07.225Z,31.50
2023-01-13T23:42:07.227Z,33.00
2023-01-13T23:43:07.204Z,28.10
2023-01-13T23:44:07.165Z,24.70
2023-01-13T23:45:07.168Z,21.00
2023-01-13T23:46:07.204Z,30.40
2023-01-13T23:47:07.167Z,26.60
2023-01-13T23:48:07.157Z,24.10
2023-01-13T23:49:07.135Z,29.60
2023-01-13T23:50:07.130Z,26.00
2023-01-13T23:51:07.123Z,30.10
2023-01-13T23:52:07.112Z,24.80
2023-01-13T23:53:07.082Z,28.50
2023-01-13T23:54:07.100Z,32.00
2023-01-13T23:55:07.097Z,25.50
2023-01-13T23:56:07.103Z,23.30
2023-01-13T23:57:07.112Z,29.70
2023-01-13T23:58:07.087Z,25.20
2023-01-13T23:59:07.063Z,25.70
